Time;durP1;ratioP1;P1;durP2;ratioP2;P2;SDS_P1;SDS_P2;PMS_P1;PMS_P2;Temp;Humidity;BMP_temperature;BMP_pressure;BME280_temperature;BME280_humidity;BME280_pressure;Samples;Min_cycle;Max_cycle;Signal;HPM_P1;HPM_P2
2023/06/17 00:01:06;;;;;;;2.83;2.55;;;18.90;99.90;;;;;;5100094;27;20229;-78
2023/06/17 00:03:33;;;;;;;2.90;2.70;;;18.90;99.90;;;;;;5102746;27;20679;-76
2023/06/17 00:06:00;;;;;;;2.65;2.45;;;18.80;99.90;;;;;;5097575;27;20465;-77
2023/06/17 00:08:27;;;;;;;3.10;2.80;;;18.70;99.90;;;;;;5111644;27;20206;-78
2023/06/17 00:10:54;;;;;;;3.13;2.85;;;18.70;99.90;;;;;;5119230;27;20204;-78
2023/06/17 00:13:21;;;;;;;2.95;2.75;;;18.70;99.90;;;;;;5120412;27;20186;-78
2023/06/17 00:15:56;;;;;;;3.17;2.97;;;18.70;99.90;;;;;;5121340;27;20189;-78
2023/06/17 00:18:24;;;;;;;3.88;3.10;;;18.70;99.90;;;;;;5131626;27;20224;-78
2023/06/17 00:20:52;;;;;;;3.20;2.97;;;18.70;99.90;;;;;;5105910;27;20193;-77
2023/06/17 00:23:20;;;;;;;3.00;2.70;;;18.80;99.90;;;;;;5099780;27;20279;-78
2023/06/17 00:25:47;;;;;;;3.38;3.08;;;18.70;99.90;;;;;;5098822;27;20200;-75
2023/06/17 00:28:14;;;;;;;3.40;2.75;;;18.70;99.90;;;;;;5097826;27;20213;-77
2023/06/17 00:30:41;;;;;;;2.90;2.70;;;18.70;99.90;;;;;;5097702;27;20316;-77
2023/06/17 00:33:09;;;;;;;3.30;3.00;;;18.70;99.90;;;;;;5105677;27;20253;-77
2023/06/17 00:35:36;;;;;;;2.85;2.65;;;18.60;99.90;;;;;;5103266;27;20201;-77
2023/06/17 00:38:03;;;;;;;2.90;2.70;;;18.60;99.90;;;;;;5101168;27;20311;-77
2023/06/17 00:40:30;;;;;;;2.78;2.55;;;18.60;99.90;;;;;;5102335;27;20201;-77
2023/06/17 00:42:57;;;;;;;2.90;2.70;;;18.60;99.90;;;;;;5100617;27;20202;-77
2023/06/17 00:45:24;;;;;;;3.05;2.85;;;18.60;99.90;;;;;;5099130;27;20239;-77
2023/06/17 00:47:51;;;;;;;3.08;2.88;;;18.60;99.90;;;;;;5104293;27;20221;-77
2023/06/17 00:50:20;;;;;;;2.88;2.67;;;18.50;99.90;;;;;;5102193;27;20262;-77
2023/06/17 00:52:51;;;;;;;2.70;2.50;;;18.50;99.90;;;;;;5107532;27;20204;-77
2023/06/17 00:55:18;;;;;;;2.90;2.70;;;18.50;99.90;;;;;;5110075;27;20212;-77
2023/06/17 00:57:47;;;;;;;3.28;2.97;;;18.50;99.90;;;;;;5107405;27;20220;-78
2023/06/17 01:00:15;;;;;;;3.55;2.60;;;18.40;99.90;;;;;;5101626;27;20205;-77
2023/06/17 01:02:44;;;;;;;3.30;3.10;;;18.40;99.90;;;;;;5111837;27;20196;-77
2023/06/17 01:05:14;;;;;;;3.40;3.08;;;18.40;99.90;;;;;;5109576;27;20197;-77
2023/06/17 01:07:56;;;;;;;3.17;2.78;;;18.40;99.90;;;;;;5107084;27;20219;-78
2023/06/17 01:10:29;;;;;;;3.63;3.00;;;18.40;99.90;;;;;;5112159;27;20224;-77
2023/06/17 01:12:58;;;;;;;3.53;3.22;;;18.40;99.90;;;;;;5107276;28;20250;-77
2023/06/17 01:15:25;;;;;;;3.10;2.90;;;18.30;99.90;;;;;;5110154;27;20768;-78
2023/06/17 01:17:54;;;;;;;2.97;2.78;;;18.30;99.90;;;;;;5104806;28;20304;-77
2023/06/17 01:20:23;;;;;;;3.33;3.05;;;18.30;99.90;;;;;;5102178;28;20208;-77
2023/06/17 01:22:54;;;;;;;3.17;2.88;;;18.20;99.90;;;;;;5106595;28;20781;-77
2023/06/17 01:25:29;;;;;;;3.38;3.08;;;18.20;99.90;;;;;;5111743;28;20379;-77
2023/06/17 01:27:59;;;;;;;3.10;2.80;;;18.20;99.90;;;;;;5106794;27;21102;-76
2023/06/17 01:30:29;;;;;;;3.10;2.90;;;18.20;99.90;;;;;;5109103;27;20352;-77
2023/06/17 01:32:56;;;;;;;2.65;2.45;;;18.20;99.90;;;;;;5111070;27;20232;-77
2023/06/17 01:35:25;;;;;;;3.03;2.83;;;18.20;99.90;;;;;;5106280;27;20205;-78
2023/06/17 01:38:07;;;;;;;3.00;2.80;;;18.20;99.90;;;;;;5110687;27;20819;-78
2023/06/17 01:40:38;;;;;;;3.53;3.00;;;18.10;99.90;;;;;;5102940;27;20204;-77
2023/06/17 01:43:06;;;;;;;3.25;3.03;;;18.10;99.90;;;;;;5108720;27;20196;-77
2023/06/17 01:45:34;;;;;;;2.97;2.70;;;18.10;99.90;;;;;;5115792;27;20200;-76
2023/06/17 01:48:01;;;;;;;3.10;2.80;;;18.10;99.90;;;;;;5111385;27;20219;-77
2023/06/17 01:50:29;;;;;;;2.85;2.63;;;18.00;99.90;;;;;;5108961;27;20205;-77
2023/06/17 01:52:55;;;;;;;3.22;2.95;;;18.00;99.90;;;;;;5107730;27;20273;-77
2023/06/17 01:55:22;;;;;;;3.30;3.00;;;18.00;99.90;;;;;;5110520;27;20707;-77
2023/06/17 01:57:51;;;;;;;3.20;2.90;;;17.90;99.90;;;;;;5107311;27;20209;-77
2023/06/17 02:00:18;;;;;;;3.05;2.85;;;17.90;99.90;;;;;;5108730;27;20566;-77
2023/06/17 02:02:46;;;;;;;3.20;2.92;;;17.90;99.90;;;;;;5106568;27;20711;-77
2023/06/17 02:05:13;;;;;;;3.67;3.10;;;17.90;99.90;;;;;;5105869;27;20196;-77
2023/06/17 02:07:40;;;;;;;3.20;2.95;;;17.80;99.90;;;;;;5109863;27;20273;-78
2023/06/17 02:10:08;;;;;;;3.15;2.92;;;17.80;99.90;;;;;;5134290;27;20199;-78
2023/06/17 02:12:35;;;;;;;3.10;2.90;;;17.80;99.90;;;;;;5111871;27;20212;-76
2023/06/17 02:15:03;;;;;;;3.63;3.33;;;17.80;99.90;;;;;;5113826;27;20231;-77
2023/06/17 02:17:30;;;;;;;3.13;2.90;;;17.80;99.90;;;;;;5107690;27;20250;-77
2023/06/17 02:19:57;;;;;;;3.00;2.80;;;17.70;99.90;;;;;;5111602;27;20753;-77
2023/06/17 02:22:24;;;;;;;3.10;2.90;;;17.70;99.90;;;;;;5112562;27;20222;-77
2023/06/17 02:24:51;;;;;;;3.55;3.22;;;17.70;99.90;;;;;;5110455;27;20197;-77
2023/06/17 02:27:18;;;;;;;2.88;2.67;;;17.60;99.90;;;;;;5110006;27;20244;-77
2023/06/17 02:29:45;;;;;;;3.08;2.88;;;17.60;99.90;;;;;;5113450;27;20233;-77
2023/06/17 02:32:13;;;;;;;3.53;3.22;;;17.50;99.90;;;;;;5105037;27;20250;-77
2023/06/17 02:34:42;;;;;;;3.00;2.80;;;17.50;99.90;;;;;;5109270;27;20235;-77
2023/06/17 02:37:09;;;;;;;2.88;2.67;;;17.50;99.90;;;;;;5108044;27;20217;-77
2023/06/17 02:39:36;;;;;;;2.90;2.70;;;17.40;99.90;;;;;;5105418;27;20203;-77
2023/06/17 02:42:04;;;;;;;3.33;3.10;;;17.40;99.90;;;;;;5108626;27;20200;-77
2023/06/17 02:44:31;;;;;;;2.90;2.70;;;17.40;99.90;;;;;;5113143;27;20290;-77
2023/06/17 02:46:58;;;;;;;3.08;2.80;;;17.30;99.90;;;;;;5109860;27;20201;-77
2023/06/17 02:49:26;;;;;;;3.38;3.08;;;17.30;99.90;;;;;;5112832;27;20240;-77
2023/06/17 02:51:53;;;;;;;3.28;3.00;;;17.30;99.90;;;;;;5118454;27;20224;-77
2023/06/17 02:54:20;;;;;;;3.22;2.88;;;17.30;99.90;;;;;;5108244;27;20622;-77
2023/06/17 02:56:47;;;;;;;3.15;2.90;;;17.30;99.90;;;;;;5103550;27;20849;-77
2023/06/17 02:59:15;;;;;;;3.60;2.85;;;17.30;99.90;;;;;;5112614;27;20300;-77
2023/06/17 03:01:42;;;;;;;3.33;2.95;;;17.20;99.90;;;;;;5106353;27;20201;-76
2023/06/17 03:04:11;;;;;;;2.90;2.70;;;17.20;99.90;;;;;;5110087;27;20223;-77
2023/06/17 03:06:41;;;;;;;3.30;3.00;;;17.20;99.90;;;;;;5107371;27;20287;-77
2023/06/17 03:09:08;;;;;;;3.53;3.20;;;17.20;99.90;;;;;;5109585;27;20725;-78
2023/06/17 03:11:36;;;;;;;3.42;3.13;;;17.20;99.90;;;;;;5109363;27;20299;-77
2023/06/17 03:14:03;;;;;;;3.40;3.00;;;17.20;99.90;;;;;;5111457;27;20283;-77
2023/06/17 03:16:33;;;;;;;3.30;3.00;;;17.20;99.90;;;;;;5106717;27;20270;-77
2023/06/17 03:19:00;;;;;;;3.75;3.45;;;17.10;99.90;;;;;;5108875;27;20220;-75
2023/06/17 03:21:29;;;;;;;3.13;2.92;;;17.10;99.90;;;;;;5111711;27;20801;-77
2023/06/17 03:23:59;;;;;;;3.60;3.30;;;17.10;99.90;;;;;;5104976;27;20207;-77
2023/06/17 03:26:26;;;;;;;3.03;2.83;;;17.20;99.90;;;;;;5108526;27;20197;-76
2023/06/17 03:28:54;;;;;;;3.33;3.05;;;17.10;99.90;;;;;;5107641;27;20220;-77
2023/06/17 03:31:21;;;;;;;3.70;3.40;;;17.10;99.90;;;;;;5107749;27;20296;-77
2023/06/17 03:33:49;;;;;;;3.40;3.10;;;17.10;99.90;;;;;;5115583;27;20207;-77
2023/06/17 03:36:17;;;;;;;3.15;2.92;;;17.10;99.90;;;;;;5110121;27;20566;-78
2023/06/17 03:38:45;;;;;;;3.70;3.40;;;17.10;99.90;;;;;;5127609;27;20732;-78
2023/06/17 03:41:14;;;;;;;3.35;3.05;;;17.00;99.90;;;;;;5124843;27;20250;-77
2023/06/17 03:43:41;;;;;;;3.13;2.90;;;17.10;99.90;;;;;;5116641;27;20197;-78
2023/06/17 03:46:08;;;;;;;4.32;3.92;;;17.10;99.90;;;;;;5110374;27;20247;-77
2023/06/17 03:48:35;;;;;;;3.88;3.50;;;17.10;99.90;;;;;;5115577;27;20269;-78
2023/06/17 03:51:03;;;;;;;3.72;3.40;;;17.20;99.90;;;;;;5108573;27;20288;-76
2023/06/17 03:53:30;;;;;;;4.47;3.90;;;17.30;99.90;;;;;;5106891;27;20208;-77
2023/06/17 03:55:57;;;;;;;4.40;4.00;;;17.30;99.90;;;;;;5111356;27;20233;-77
2023/06/17 03:58:25;;;;;;;4.50;3.42;;;17.40;99.90;;;;;;5106943;27;20255;-76
2023/06/17 04:00:53;;;;;;;4.15;3.75;;;17.40;99.90;;;;;;5110788;27;20205;-78
2023/06/17 04:03:24;;;;;;;4.18;3.78;;;17.40;99.90;;;;;;5128551;27;20265;-78
2023/06/17 04:05:51;;;;;;;3.90;3.60;;;17.50;99.90;;;;;;5118659;27;20196;-76
2023/06/17 04:08:18;;;;;;;4.28;3.88;;;17.30;99.90;;;;;;5107798;27;20875;-76
2023/06/17 04:10:47;;;;;;;3.72;3.42;;;17.10;99.90;;;;;;5108710;27;20284;-77
2023/06/17 04:13:14;;;;;;;4.13;3.83;;;16.90;99.90;;;;;;5110895;27;20208;-76
2023/06/17 04:15:43;;;;;;;3.65;3.35;;;16.70;99.90;;;;;;5105858;27;20212;-76
2023/06/17 04:18:10;;;;;;;3.72;3.42;;;16.60;99.90;;;;;;5113009;27;20215;-76
2023/06/17 04:20:36;;;;;;;4.90;3.15;;;16.50;99.90;;;;;;5104750;27;20197;-76
2023/06/17 04:23:03;;;;;;;4.15;3.75;;;16.40;99.90;;;;;;5111167;27;20201;-76
2023/06/17 04:25:32;;;;;;;3.78;3.47;;;16.40;99.90;;;;;;5106473;27;20197;-76
2023/06/17 04:28:01;;;;;;;3.70;3.40;;;16.40;99.90;;;;;;5108311;27;20213;-76
2023/06/17 04:30:28;;;;;;;4.05;3.72;;;16.40;99.90;;;;;;5107270;27;20247;-77
2023/06/17 04:33:00;;;;;;;5.13;3.80;;;16.40;99.90;;;;;;5109228;27;20224;-77
2023/06/17 04:35:27;;;;;;;4.32;3.92;;;16.50;99.90;;;;;;5106269;27;20715;-77
2023/06/17 04:37:54;;;;;;;4.10;3.75;;;16.50;99.90;;;;;;5107356;27;20576;-77
2023/06/17 04:40:21;;;;;;;4.10;3.72;;;16.50;99.90;;;;;;5108217;27;20625;-77
2023/06/17 04:42:49;;;;;;;3.80;3.50;;;16.60;99.90;;;;;;5106320;27;20201;-77
2023/06/17 04:45:17;;;;;;;3.53;3.22;;;16.70;99.90;;;;;;5110135;27;20232;-77
2023/06/17 04:47:44;;;;;;;3.88;3.45;;;16.80;99.90;;;;;;5108709;27;20235;-78
2023/06/17 04:50:15;;;;;;;3.35;3.10;;;17.00;99.90;;;;;;5114562;27;20197;-77
2023/06/17 04:52:43;;;;;;;3.72;3.42;;;17.10;99.90;;;;;;5113097;27;20224;-77
2023/06/17 04:55:14;;;;;;;3.40;3.10;;;17.30;99.90;;;;;;5110639;27;20203;-77
2023/06/17 04:57:41;;;;;;;3.22;3.03;;;17.40;99.90;;;;;;5107172;27;20217;-77
2023/06/17 05:00:10;;;;;;;3.58;3.28;;;17.50;99.90;;;;;;5113997;27;20228;-77
2023/06/17 05:02:37;;;;;;;3.47;3.28;;;17.60;99.90;;;;;;5105957;27;20206;-78
2023/06/17 05:05:05;;;;;;;3.50;3.25;;;17.80;99.90;;;;;;5108269;28;20270;-76
2023/06/17 05:07:34;;;;;;;3.53;3.22;;;17.90;99.90;;;;;;5108478;27;20312;-77
2023/06/17 05:10:01;;;;;;;3.50;3.20;;;18.00;99.90;;;;;;5106799;27;20722;-77
2023/06/17 05:12:28;;;;;;;3.95;3.58;;;18.10;99.90;;;;;;5104899;28;20208;-77
2023/06/17 05:14:56;;;;;;;4.07;3.67;;;18.20;99.90;;;;;;5110701;27;20251;-78
2023/06/17 05:17:23;;;;;;;4.25;3.85;;;18.30;99.90;;;;;;5102761;28;20225;-77
2023/06/17 05:19:50;;;;;;;6.05;4.07;;;18.20;99.90;;;;;;5110313;28;20208;-77
2023/06/17 05:22:17;;;;;;;4.82;3.75;;;18.20;99.90;;;;;;5107200;28;20277;-78
2023/06/17 05:24:45;;;;;;;5.22;4.70;;;18.30;99.90;;;;;;5105321;28;20285;-79
2023/06/17 05:27:13;;;;;;;5.55;4.30;;;18.30;99.90;;;;;;5108304;28;20224;-77
2023/06/17 05:29:40;;;;;;;4.97;4.55;;;18.20;99.90;;;;;;5106657;28;20245;-77
2023/06/17 05:32:07;;;;;;;4.93;4.43;;;18.20;99.90;;;;;;5112517;27;20196;-76
2023/06/17 05:34:34;;;;;;;4.53;4.13;;;18.30;99.90;;;;;;5111096;28;20449;-77
2023/06/17 05:37:01;;;;;;;4.60;4.20;;;18.30;99.90;;;;;;5110687;28;20284;-77
2023/06/17 05:39:28;;;;;;;4.25;3.85;;;18.40;99.90;;;;;;5101651;28;20308;-78
2023/06/17 05:41:56;;;;;;;4.35;3.95;;;18.40;99.90;;;;;;5111735;28;20285;-78
2023/06/17 05:44:23;;;;;;;4.57;3.95;;;18.50;99.90;;;;;;5102105;28;20296;-77
2023/06/17 05:46:50;;;;;;;4.22;3.83;;;18.60;99.90;;;;;;5112150;28;20233;-77
2023/06/17 05:49:17;;;;;;;5.13;4.50;;;18.60;99.90;;;;;;5110614;28;20296;-78
2023/06/17 05:51:44;;;;;;;5.18;4.60;;;18.60;99.90;;;;;;5103503;28;20212;-77
2023/06/17 05:54:11;;;;;;;5.15;4.40;;;18.60;99.90;;;;;;5111706;28;20200;-77
2023/06/17 05:56:38;;;;;;;4.53;4.13;;;18.50;99.90;;;;;;5125094;28;20180;-78
2023/06/17 05:59:06;;;;;;;4.47;4.07;;;18.60;99.90;;;;;;5119972;28;20733;-78
2023/06/17 06:01:33;;;;;;;5.28;4.45;;;18.70;99.90;;;;;;5101576;28;20691;-77
2023/06/17 06:04:00;;;;;;;4.85;4.45;;;18.80;99.90;;;;;;5108529;28;20283;-77
2023/06/17 06:06:27;;;;;;;5.00;4.53;;;18.80;99.90;;;;;;5110562;27;20293;-77
2023/06/17 06:08:54;;;;;;;7.95;4.50;;;18.90;99.90;;;;;;5115347;28;20368;-77
2023/06/17 06:11:21;;;;;;;4.70;4.30;;;18.90;99.90;;;;;;5108765;28;20237;-77
2023/06/17 06:13:48;;;;;;;4.88;4.45;;;19.00;99.90;;;;;;5106987;28;20200;-77
2023/06/17 06:16:16;;;;;;;4.22;3.83;;;19.20;99.90;;;;;;5109921;27;20221;-77
2023/06/17 06:18:43;;;;;;;4.30;3.90;;;19.30;99.90;;;;;;5112264;27;20280;-76
2023/06/17 06:21:10;;;;;;;4.25;3.85;;;19.50;99.90;;;;;;5109737;27;20201;-78
2023/06/17 06:23:38;;;;;;;5.07;4.32;;;19.70;99.90;;;;;;5120655;27;20829;-78
2023/06/17 06:26:05;;;;;;;4.70;4.20;;;19.90;99.90;;;;;;5109577;27;20277;-77
2023/06/17 06:28:32;;;;;;;4.35;3.85;;;20.00;99.90;;;;;;5109654;27;20820;-76
2023/06/17 06:30:59;;;;;;;5.55;4.75;;;20.10;99.90;;;;;;5108055;27;20228;-77
2023/06/17 06:33:27;;;;;;;4.63;4.22;;;20.10;99.90;;;;;;5116828;27;20812;-77
2023/06/17 06:35:54;;;;;;;4.93;4.47;;;20.20;99.90;;;;;;5109018;27;20835;-77
2023/06/17 06:38:21;;;;;;;4.78;4.28;;;20.30;99.90;;;;;;5107356;27;20300;-78
2023/06/17 06:40:48;;;;;;;5.05;4.10;;;20.40;99.90;;;;;;5109386;27;20722;-77
2023/06/17 06:43:15;;;;;;;4.35;3.65;;;20.50;99.90;;;;;;5107029;27;20201;-76
2023/06/17 06:45:42;;;;;;;4.60;4.20;;;20.70;99.90;;;;;;5122540;27;20229;-79
2023/06/17 06:48:09;;;;;;;3.92;3.63;;;21.00;99.90;;;;;;5116883;27;20234;-78
2023/06/17 06:50:37;;;;;;;6.38;3.92;;;21.20;99.90;;;;;;5111705;27;20197;-77
2023/06/17 06:53:04;;;;;;;4.50;4.10;;;21.40;99.90;;;;;;5105443;27;20193;-77
2023/06/17 06:55:31;;;;;;;5.05;4.55;;;21.30;99.90;;;;;;5105410;27;20201;-79
2023/06/17 06:57:58;;;;;;;6.78;4.82;;;21.20;99.90;;;;;;5102542;27;20225;-77
2023/06/17 07:00:25;;;;;;;6.95;4.65;;;21.10;99.90;;;;;;5105207;27;20305;-77
2023/06/17 07:02:52;;;;;;;4.82;4.43;;;20.90;99.90;;;;;;5109928;27;21097;-77
2023/06/17 07:05:21;;;;;;;4.93;4.50;;;20.70;99.90;;;;;;5105632;27;20196;-78
2023/06/17 07:07:49;;;;;;;4.70;4.30;;;20.60;99.90;;;;;;5103349;27;20279;-77
2023/06/17 07:10:16;;;;;;;5.75;4.78;;;20.60;99.90;;;;;;5106505;27;20229;-78
2023/06/17 07:12:43;;;;;;;5.22;4.72;;;20.60;99.90;;;;;;5106184;27;21427;-76
2023/06/17 07:15:10;;;;;;;5.18;4.68;;;20.70;99.90;;;;;;5103737;27;20201;-78
2023/06/17 07:17:37;;;;;;;4.65;4.25;;;21.00;99.90;;;;;;5101454;27;21716;-79
2023/06/17 07:20:06;;;;;;;5.00;4.60;;;21.10;99.90;;;;;;5107251;28;20247;-79
2023/06/17 07:22:33;;;;;;;4.93;4.03;;;21.20;99.90;;;;;;5105192;27;20200;-80
2023/06/17 07:25:02;;;;;;;4.57;4.18;;;21.40;99.90;;;;;;5105130;28;20192;-80
2023/06/17 07:27:29;;;;;;;4.97;4.07;;;21.60;99.90;;;;;;5100471;27;20219;-78
2023/06/17 07:29:56;;;;;;;4.15;3.75;;;21.90;99.90;;;;;;5111678;27;20867;-78
2023/06/17 07:32:23;;;;;;;4.70;4.20;;;22.20;99.90;;;;;;5112706;27;20228;-79
2023/06/17 07:34:50;;;;;;;4.30;3.90;;;22.40;99.90;;;;;;5109850;27;20232;-79
2023/06/17 07:37:17;;;;;;;4.40;3.85;;;22.60;99.90;;;;;;5115086;27;20702;-79
2023/06/17 07:39:46;;;;;;;4.38;3.97;;;22.70;99.90;;;;;;5104140;27;20241;-82
2023/06/17 07:42:16;;;;;;;5.35;4.47;;;22.80;99.90;;;;;;5104688;27;20202;-80
2023/06/17 07:44:43;;;;;;;5.35;4.85;;;22.70;99.90;;;;;;5120396;27;20200;-79
2023/06/17 07:47:10;;;;;;;4.95;4.50;;;22.70;99.90;;;;;;5114858;27;20272;-79
2023/06/17 07:49:37;;;;;;;5.15;3.97;;;22.70;99.90;;;;;;5115441;27;20221;-80
2023/06/17 07:52:04;;;;;;;4.25;3.95;;;22.80;99.90;;;;;;5127958;27;20188;-80
2023/06/17 07:54:35;;;;;;;5.35;4.85;;;22.90;99.90;;;;;;5112860;27;20624;-79
2023/06/17 07:57:02;;;;;;;6.30;4.80;;;22.80;99.90;;;;;;5112366;27;20702;-80
2023/06/17 07:59:31;;;;;;;5.15;4.63;;;22.60;99.90;;;;;;5107963;27;20255;-79
2023/06/17 08:01:58;;;;;;;5.13;4.63;;;22.50;99.90;;;;;;5117614;27;20254;-79
2023/06/17 08:04:25;;;;;;;4.60;3.85;;;22.50;99.90;;;;;;5114050;27;20250;-81
2023/06/17 08:06:52;;;;;;;5.72;5.00;;;22.70;99.90;;;;;;5108780;27;20291;-80
2023/06/17 08:09:19;;;;;;;4.97;4.57;;;22.60;99.90;;;;;;5104525;27;20197;-78
2023/06/17 08:11:47;;;;;;;4.60;4.20;;;22.60;99.90;;;;;;5111938;27;20290;-79
2023/06/17 08:14:15;;;;;;;5.90;5.00;;;22.70;99.90;;;;;;5113757;27;20550;-78
2023/06/17 08:16:43;;;;;;;4.82;4.20;;;22.80;99.90;;;;;;5109719;27;20204;-80
2023/06/17 08:19:10;;;;;;;4.57;4.18;;;22.90;99.90;;;;;;5113777;27;20221;-79
2023/06/17 08:21:37;;;;;;;4.78;4.35;;;23.10;99.90;;;;;;5112322;27;20610;-79
2023/06/17 08:24:21;;;;;;;4.82;4.43;;;23.20;99.90;;;;;;5111157;27;20196;-79
2023/06/17 08:26:48;;;;;;;5.43;4.90;;;23.20;99.90;;;;;;5110944;27;20195;-79
2023/06/17 08:29:16;;;;;;;5.32;4.57;;;23.30;99.90;;;;;;5110762;27;20196;-79
2023/06/17 08:31:46;;;;;;;4.70;4.30;;;23.40;99.90;;;;;;5106250;27;20389;-80
2023/06/17 08:34:14;;;;;;;5.53;4.95;;;23.50;99.90;;;;;;5104082;27;20434;-79
2023/06/17 08:36:43;;;;;;;4.60;4.20;;;23.80;99.90;;;;;;5100903;27;20805;-78
2023/06/17 08:39:10;;;;;;;4.45;4.05;;;23.80;99.90;;;;;;5098573;27;20279;-79
2023/06/17 08:41:39;;;;;;;4.97;4.55;;;24.00;99.90;;;;;;5112477;27;20299;-79
2023/06/17 08:44:07;;;;;;;4.78;3.88;;;23.90;99.90;;;;;;5102452;27;20204;-79
2023/06/17 08:46:35;;;;;;;4.85;4.35;;;23.90;99.90;;;;;;5104644;27;20846;-78
2023/06/17 08:49:04;;;;;;;4.85;4.45;;;23.80;99.90;;;;;;5103319;27;20312;-78
2023/06/17 08:51:31;;;;;;;5.40;4.90;;;24.10;99.90;;;;;;5105010;27;20205;-78
2023/06/17 08:53:58;;;;;;;6.18;4.60;;;24.00;99.90;;;;;;5105216;27;20197;-78
2023/06/17 08:56:25;;;;;;;4.65;4.25;;;24.20;99.90;;;;;;5106252;27;20204;-78
2023/06/17 08:58:54;;;;;;;5.15;4.32;;;24.40;99.90;;;;;;5105251;27;20330;-78
2023/06/17 09:01:22;;;;;;;4.80;4.40;;;24.50;99.90;;;;;;5112413;27;20205;-78
2023/06/17 09:03:52;;;;;;;5.03;4.63;;;24.50;99.90;;;;;;5106683;27;20280;-76
2023/06/17 09:06:23;;;;;;;4.72;4.30;;;24.50;99.90;;;;;;5100455;27;20309;-78
2023/06/17 09:08:51;;;;;;;5.07;4.68;;;24.40;99.90;;;;;;5098578;28;20225;-76
2023/06/17 09:11:21;;;;;;;4.68;4.28;;;24.40;99.90;;;;;;5103484;27;20601;-77
2023/06/17 09:13:51;;;;;;;5.85;4.60;;;24.40;99.90;;;;;;5099873;28;20201;-77
2023/06/17 09:16:18;;;;;;;5.10;4.25;;;24.50;99.90;;;;;;5104091;27;20189;-79
2023/06/17 09:18:45;;;;;;;4.88;4.43;;;24.60;99.90;;;;;;5109092;28;20221;-79
2023/06/17 09:21:17;;;;;;;4.82;4.32;;;24.70;99.90;;;;;;5096238;28;20382;-80
2023/06/17 09:23:53;;;;;;;4.28;3.88;;;24.90;99.90;;;;;;5101655;28;20586;-79
2023/06/17 09:26:20;;;;;;;4.28;3.97;;;24.90;99.90;;;;;;5107115;27;20279;-78
2023/06/17 09:28:47;;;;;;;5.53;4.30;;;24.80;99.90;;;;;;5100278;28;20930;-78
2023/06/17 09:31:14;;;;;;;4.80;4.40;;;24.70;99.90;;;;;;5101801;28;20228;-78
2023/06/17 09:33:45;;;;;;;4.60;4.20;;;24.70;99.90;;;;;;5102860;28;20224;-78
2023/06/17 09:36:12;;;;;;;4.78;4.38;;;24.70;99.90;;;;;;5103487;28;20352;-78
2023/06/17 09:38:39;;;;;;;4.75;4.35;;;24.90;99.90;;;;;;5105607;28;20231;-79
2023/06/17 09:41:14;;;;;;;4.97;4.57;;;25.00;99.90;;;;;;5100848;28;20217;-80
2023/06/17 09:43:41;;;;;;;4.57;4.18;;;25.20;99.90;;;;;;5125362;28;20196;-80
2023/06/17 09:46:10;;;;;;;5.57;4.38;;;25.40;99.90;;;;;;5109737;28;20205;-80
2023/06/17 09:48:38;;;;;;;4.32;3.80;;;25.50;99.90;;;;;;5098826;27;20315;-80
2023/06/17 09:51:09;;;;;;;5.10;4.60;;;25.50;99.90;;;;;;5102239;27;20192;-78
2023/06/17 09:53:36;;;;;;;5.03;4.63;;;25.70;99.90;;;;;;5103360;27;20204;-77
2023/06/17 09:56:04;;;;;;;6.03;4.60;;;25.90;99.90;;;;;;5106339;27;20201;-77
2023/06/17 09:58:34;;;;;;;5.03;4.55;;;26.00;99.90;;;;;;5105939;27;20269;-78
2023/06/17 10:01:05;;;;;;;5.63;4.60;;;26.10;99.90;;;;;;5096942;27;20213;-78
2023/06/17 10:03:33;;;;;;;4.85;4.45;;;26.10;99.90;;;;;;5102551;27;20201;-79
2023/06/17 10:06:03;;;;;;;4.70;4.30;;;26.10;99.90;;;;;;5100641;27;20296;-78
2023/06/17 10:08:31;;;;;;;5.32;4.50;;;26.10;99.90;;;;;;5101067;27;20221;-78
2023/06/17 10:11:00;;;;;;;4.78;4.38;;;26.40;99.90;;;;;;5093820;27;20718;-79
2023/06/17 10:13:29;;;;;;;4.68;4.28;;;26.60;99.90;;;;;;5093462;27;20240;-79
2023/06/17 10:15:59;;;;;;;5.10;4.60;;;26.80;99.90;;;;;;5103947;27;20271;-79
2023/06/17 10:18:28;;;;;;;4.78;4.30;;;26.80;99.90;;;;;;5106320;27;20212;-79
2023/06/17 10:20:56;;;;;;;6.00;4.18;;;26.70;99.90;;;;;;5099936;27;20256;-78
2023/06/17 10:23:24;;;;;;;5.05;4.55;;;26.80;99.90;;;;;;5097643;27;20288;-79
2023/06/17 10:25:54;;;;;;;5.72;4.35;;;27.00;99.90;;;;;;5105413;27;20188;-78
2023/06/17 10:28:21;;;;;;;5.30;4.80;;;27.10;99.90;;;;;;5112324;27;20224;-78
2023/06/17 10:30:51;;;;;;;5.43;4.72;;;27.30;99.90;;;;;;5103386;27;20279;-78
2023/06/17 10:33:27;;;;;;;11.48;6.50;;;27.40;99.90;;;;;;5099341;27;20197;-78
2023/06/17 10:36:07;;;;;;;6.18;5.40;;;27.60;99.90;;;;;;5100919;27;20206;-77
2023/06/17 10:38:34;;;;;;;5.47;4.55;;;27.50;99.90;;;;;;5111114;27;20260;-77
2023/06/17 10:41:01;;;;;;;5.07;4.60;;;27.70;99.90;;;;;;5103184;27;20640;-77
2023/06/17 10:43:35;;;;;;;5.60;4.28;;;27.60;99.90;;;;;;5097981;27;20225;-78
2023/06/17 10:46:02;;;;;;;5.22;4.70;;;27.60;99.90;;;;;;5096522;27;20715;-77
2023/06/17 10:48:32;;;;;;;4.65;4.25;;;27.60;99.90;;;;;;5106564;27;20302;-78
2023/06/17 10:51:02;;;;;;;6.45;4.70;;;27.70;99.90;;;;;;5096959;27;20610;-78
2023/06/17 10:53:30;;;;;;;5.13;4.63;;;27.90;99.90;;;;;;5098221;27;20236;-78
2023/06/17 10:55:58;;;;;;;4.85;4.35;;;28.10;99.90;;;;;;5096427;27;20197;-79
2023/06/17 10:58:32;;;;;;;6.55;4.40;;;28.00;99.90;;;;;;5101885;27;21046;-77
2023/06/17 11:01:03;;;;;;;5.38;4.25;;;28.20;99.90;;;;;;5093989;27;20715;-78
2023/06/17 11:03:32;;;;;;;4.88;4.38;;;28.20;99.90;;;;;;5093071;27;20273;-77
2023/06/17 11:06:00;;;;;;;4.53;4.13;;;28.30;99.90;;;;;;5100589;27;20197;-78
2023/06/17 11:08:28;;;;;;;4.03;3.72;;;28.40;99.90;;;;;;5099912;27;20313;-78
2023/06/17 11:11:09;;;;;;;5.20;4.78;;;28.40;99.90;;;;;;5101300;27;20706;-78
2023/06/17 11:13:38;;;;;;;3.90;3.55;;;28.30;99.90;;;;;;5101668;27;20201;-77
2023/06/17 11:16:05;;;;;;;4.82;4.32;;;28.60;99.90;;;;;;5097899;27;20203;-77
2023/06/17 11:18:36;;;;;;;5.03;4.53;;;28.90;99.90;;;;;;5096735;27;20217;-78
2023/06/17 11:21:05;;;;;;;5.35;4.47;;;29.00;99.90;;;;;;5097729;27;20631;-77
2023/06/17 11:23:32;;;;;;;5.10;4.63;;;29.00;99.90;;;;;;5097526;27;20208;-77
2023/06/17 11:25:59;;;;;;;4.40;4.00;;;28.80;99.90;;;;;;5095997;27;20733;-78
2023/06/17 11:28:26;;;;;;;4.88;4.15;;;28.60;99.90;;;;;;5098825;27;20514;-78
2023/06/17 11:30:55;;;;;;;5.07;4.40;;;28.70;99.90;;;;;;5095718;27;20200;-78
2023/06/17 11:33:23;;;;;;;4.20;3.80;;;28.50;99.90;;;;;;5114952;27;20209;-78
2023/06/17 11:35:53;;;;;;;5.05;4.53;;;28.80;99.90;;;;;;5104720;27;20220;-77
2023/06/17 11:38:22;;;;;;;5.05;3.95;;;29.20;99.90;;;;;;5094510;27;20221;-78
2023/06/17 11:40:54;;;;;;;4.93;4.43;;;29.30;99.90;;;;;;5100684;27;20236;-78
2023/06/17 11:43:24;;;;;;;5.25;4.75;;;29.30;99.90;;;;;;5098093;27;20251;-78
2023/06/17 11:45:53;;;;;;;4.25;3.85;;;29.20;99.90;;;;;;5096554;27;20274;-77
2023/06/17 11:48:20;;;;;;;5.45;4.93;;;29.20;99.90;;;;;;5099873;27;20216;-78
2023/06/17 11:50:50;;;;;;;4.60;4.05;;;29.30;99.90;;;;;;5108274;27;20235;-78
2023/06/17 11:53:29;;;;;;;6.15;4.50;;;29.40;99.60;;;;;;5106165;27;20189;-79
2023/06/17 11:55:56;;;;;;;5.55;4.70;;;29.40;96.60;;;;;;5103132;27;20219;-77
2023/06/17 11:58:27;;;;;;;4.70;4.30;;;29.40;98.10;;;;;;5106020;27;20264;-79
2023/06/17 12:00:58;;;;;;;4.93;4.50;;;29.50;98.80;;;;;;5104425;27;20295;-77
2023/06/17 12:03:26;;;;;;;5.18;4.55;;;29.40;96.60;;;;;;5107974;27;20283;-77
2023/06/17 12:05:53;;;;;;;4.70;4.30;;;29.40;96.60;;;;;;5111405;27;20197;-77
2023/06/17 12:08:21;;;;;;;4.88;4.38;;;29.50;97.50;;;;;;5103560;27;20815;-77
2023/06/17 12:10:48;;;;;;;4.97;4.50;;;29.60;96.50;;;;;;5105417;27;20630;-77
2023/06/17 12:13:16;;;;;;;5.80;4.80;;;29.70;95.30;;;;;;5107507;27;20628;-77
2023/06/17 12:15:43;;;;;;;5.80;4.30;;;29.80;94.40;;;;;;5110056;27;20635;-77
2023/06/17 12:18:10;;;;;;;4.65;4.25;;;29.80;93.30;;;;;;5102150;27;20765;-77
2023/06/17 12:20:38;;;;;;;5.22;4.50;;;29.80;93.60;;;;;;5110671;27;20307;-78
2023/06/17 12:23:05;;;;;;;4.60;4.07;;;29.80;93.50;;;;;;5101558;27;20702;-77
2023/06/17 12:25:34;;;;;;;6.32;4.90;;;30.00;92.50;;;;;;5111751;27;20287;-77
2023/06/17 12:28:02;;;;;;;4.57;4.18;;;30.30;92.70;;;;;;5102306;27;20892;-78
2023/06/17 12:30:29;;;;;;;5.30;4.80;;;30.50;93.00;;;;;;5106641;27;20196;-79
2023/06/17 12:32:57;;;;;;;5.55;5.00;;;30.40;91.70;;;;;;5104513;27;20200;-76
2023/06/17 12:35:24;;;;;;;4.80;4.40;;;30.40;90.10;;;;;;5106253;27;20200;-78
2023/06/17 12:37:54;;;;;;;4.85;4.45;;;30.50;90.40;;;;;;5107610;27;20212;-78
2023/06/17 12:40:21;;;;;;;5.10;4.60;;;30.70;86.20;;;;;;5103666;27;20189;-76
2023/06/17 12:42:50;;;;;;;4.65;4.25;;;30.70;88.60;;;;;;5099386;27;20888;-78
2023/06/17 12:45:16;;;;;;;5.35;4.85;;;30.80;88.00;;;;;;5098010;27;20208;-77
2023/06/17 12:47:43;;;;;;;4.90;4.50;;;30.80;87.90;;;;;;5096383;27;21545;-78
2023/06/17 12:50:11;;;;;;;5.00;4.50;;;30.70;85.70;;;;;;5098815;27;20221;-77
2023/06/17 12:52:38;;;;;;;4.72;4.32;;;30.60;83.70;;;;;;5104747;27;20208;-77